Terminal Aerodrome Forecast
Issued by NWS

Home | Current Version | Previous Version | Text Only | Print | Product List | Glossary On
Versions: 1 2 3 4 5 6 7 8 9 10 11 12 13 14 15 16 17 18 19 20
000
FTUS41 KBGM 291100
TAFITH
TAF
KITH 291132Z 2912/3012 12006KT P6SM BKN150
     FM291800 15012KT P6SM OVC080
     FM300000 16012KT 2SM -SN OVC020
      TEMPO 3003/3007 1SM -SN OVC008=

USA.gov is the U.S. government's official web portal to all federal, state and local government web resources and services.